createdAt,value
2019-02-15T00:00:38.093Z,7.17
2019-02-15T00:03:07.905Z,8.10
2019-02-15T00:05:36.362Z,7.20
2019-02-15T00:08:04.897Z,8.23
2019-02-15T00:10:33.363Z,7.40
2019-02-15T00:13:01.878Z,7.70
2019-02-15T00:15:30.331Z,7.77
2019-02-15T00:18:00.435Z,8.13
2019-02-15T00:20:30.566Z,7.67
2019-02-15T00:22:59.133Z,7.43
2019-02-15T00:25:27.611Z,7.87
2019-02-15T00:27:56.117Z,8.17
2019-02-15T00:30:24.596Z,7.73
2019-02-15T00:32:53.055Z,7.30
2019-02-15T00:35:21.528Z,7.10
2019-02-15T00:37:50.004Z,7.90
2019-02-15T00:40:18.483Z,8.00
2019-02-15T00:42:46.958Z,7.73
2019-02-15T00:45:17.076Z,7.50
2019-02-15T00:47:59.258Z,7.30
2019-02-15T00:50:29.385Z,7.50
2019-02-15T00:53:15.984Z,6.87
2019-02-15T00:56:01.192Z,7.60
2019-02-15T00:58:33.958Z,7.53
2019-02-15T01:01:07.028Z,7.90
2019-02-15T01:03:43.336Z,7.67
2019-02-15T01:06:19.408Z,7.07
2019-02-15T01:08:58.484Z,6.67
2019-02-15T01:11:28.692Z,7.57
2019-02-15T01:13:57.156Z,7.57
2019-02-15T01:16:25.684Z,6.73
2019-02-15T01:18:54.156Z,7.50
2019-02-15T01:21:22.625Z,7.60
2019-02-15T01:23:51.096Z,7.27
2019-02-15T01:26:23.975Z,7.30
2019-02-15T01:29:09.038Z,7.37
2019-02-15T01:31:39.300Z,7.10
2019-02-15T01:34:25.851Z,7.33
2019-02-15T01:36:56.022Z,7.63
2019-02-15T01:39:26.141Z,6.53
2019-02-15T01:41:59.253Z,7.40
2019-02-15T01:44:29.365Z,7.13
2019-02-15T01:46:59.495Z,7.23
2019-02-15T01:49:28.025Z,6.80
2019-02-15T01:51:56.483Z,7.20
2019-02-15T01:54:24.965Z,6.67
2019-02-15T01:56:53.431Z,7.10
2019-02-15T01:59:21.901Z,6.90
2019-02-15T02:01:50.443Z,6.87
2019-02-15T02:04:18.936Z,6.60
2019-02-15T02:06:47.395Z,6.93
2019-02-15T02:09:16.110Z,7.13
2019-02-15T02:11:44.605Z,7.17
2019-02-15T02:14:13.069Z,6.97
2019-02-15T02:16:41.538Z,7.00
2019-02-15T02:19:09.997Z,7.03
2019-02-15T02:21:38.465Z,6.87
2019-02-15T02:24:06.942Z,7.30
2019-02-15T02:26:35.412Z,7.07
2019-02-15T02:29:03.879Z,6.90
2019-02-15T02:31:32.813Z,7.23
2019-02-15T02:34:01.286Z,7.70
2019-02-15T02:36:47.228Z,7.10
2019-02-15T02:39:15.694Z,6.90
2019-02-15T02:41:44.240Z,6.90
2019-02-15T02:44:12.709Z,6.87
2019-02-15T02:46:41.192Z,6.80
2019-02-15T02:49:09.665Z,6.77
2019-02-15T02:51:38.146Z,7.60
2019-02-15T02:54:06.616Z,7.17
2019-02-15T02:56:35.075Z,8.20
2019-02-15T02:59:03.620Z,8.03
2019-02-15T03:01:32.078Z,8.63
2019-02-15T03:04:00.557Z,8.57
2019-02-15T03:06:29.023Z,8.57
2019-02-15T03:08:57.500Z,9.10
2019-02-15T03:11:25.968Z,8.83
2019-02-15T03:13:54.447Z,8.50
2019-02-15T03:16:22.909Z,9.67
2019-02-15T03:18:51.383Z,9.57
2019-02-15T03:21:19.872Z,8.33
2019-02-15T03:23:48.399Z,8.47
2019-02-15T03:26:16.869Z,9.13
2019-02-15T03:28:45.359Z,9.03
2019-02-15T03:31:13.814Z,9.00
2019-02-15T03:33:42.298Z,9.80
2019-02-15T03:36:12.415Z,9.03
2019-02-15T03:38:57.578Z,9.10
2019-02-15T03:41:27.713Z,8.20
2019-02-15T03:43:56.440Z,8.60
2019-02-15T03:46:25.524Z,8.27
2019-02-15T03:48:54.081Z,8.17
2019-02-15T03:51:22.629Z,8.10
2019-02-15T03:53:51.087Z,8.20
2019-02-15T03:56:19.567Z,15.20
2019-02-15T03:58:48.051Z,9.13
2019-02-15T04:01:16.586Z,8.47
2019-02-15T04:03:45.314Z,8.13
2019-02-15T04:06:13.925Z,8.33
2019-02-15T04:08:42.414Z,7.50
2019-02-15T04:11:10.887Z,7.77
2019-02-15T04:13:39.367Z,8.10
2019-02-15T04:16:07.864Z,7.53
2019-02-15T04:18:36.409Z,8.97
2019-02-15T04:21:04.872Z,8.50
2019-02-15T04:23:33.346Z,7.80
2019-02-15T04:26:01.821Z,9.23
2019-02-15T04:28:30.291Z,7.77
2019-02-15T04:30:58.777Z,7.77
2019-02-15T04:33:27.237Z,7.43
2019-02-15T04:35:55.715Z,7.47
2019-02-15T04:38:24.206Z,8.13
2019-02-15T04:40:52.679Z,8.63
2019-02-15T04:43:21.145Z,7.47
2019-02-15T04:45:49.652Z,7.43
2019-02-15T04:48:18.360Z,7.53
2019-02-15T04:50:46.837Z,7.50
2019-02-15T04:53:15.318Z,6.80
2019-02-15T04:55:43.809Z,7.40
2019-02-15T04:58:12.362Z,6.80
2019-02-15T05:00:40.843Z,8.03
2019-02-15T05:03:09.306Z,6.83
2019-02-15T05:05:37.787Z,7.00
2019-02-15T05:08:06.248Z,6.87
2019-02-15T05:10:34.754Z,7.37
2019-02-15T05:13:03.216Z,8.40
2019-02-15T05:15:31.721Z,8.30
2019-02-15T05:18:00.227Z,9.07
2019-02-15T05:20:28.764Z,8.17
2019-02-15T05:22:57.232Z,8.63
2019-02-15T05:25:25.713Z,9.60
2019-02-15T05:27:54.180Z,8.53
2019-02-15T05:30:22.669Z,8.00
2019-02-15T05:32:51.147Z,7.43
2019-02-15T05:35:19.632Z,7.30
2019-02-15T05:37:48.098Z,6.90
2019-02-15T05:40:16.621Z,7.03
2019-02-15T05:42:45.067Z,7.97
2019-02-15T05:45:13.544Z,8.20
2019-02-15T05:47:42.022Z,8.00
2019-02-15T05:50:10.535Z,7.97
2019-02-15T05:52:39.024Z,7.60
2019-02-15T05:55:07.627Z,7.53
2019-02-15T05:57:36.129Z,7.63
2019-02-15T06:00:07.193Z,8.57
2019-02-15T06:02:35.697Z,7.97
2019-02-15T06:05:05.757Z,8.63
2019-02-15T06:07:34.236Z,7.93
2019-02-15T06:10:02.875Z,7.90
2019-02-15T06:12:31.361Z,9.10
2019-02-15T06:14:59.899Z,9.57
2019-02-15T06:17:28.397Z,9.17
2019-02-15T06:19:56.856Z,8.53
2019-02-15T06:22:25.345Z,8.20
2019-02-15T06:24:53.886Z,8.13
2019-02-15T06:27:22.371Z,7.87
2019-02-15T06:29:50.914Z,14.20
2019-02-15T06:32:19.399Z,9.53
2019-02-15T06:34:48.027Z,8.67
2019-02-15T06:37:16.590Z,8.93
2019-02-15T06:39:45.074Z,8.23
2019-02-15T06:42:13.553Z,8.50
2019-02-15T06:44:42.040Z,8.17
2019-02-15T06:47:10.591Z,8.53
2019-02-15T06:49:39.120Z,9.10
2019-02-15T06:52:07.672Z,8.67
2019-02-15T06:54:36.145Z,8.67
2019-02-15T06:57:04.630Z,8.43
2019-02-15T06:59:37.320Z,9.40
2019-02-15T07:02:16.447Z,9.73
2019-02-15T07:04:46.568Z,8.70
2019-02-15T07:07:15.038Z,8.60
2019-02-15T07:09:43.528Z,8.27
2019-02-15T07:12:12.004Z,8.40
2019-02-15T07:14:40.472Z,9.27
2019-02-15T07:17:08.938Z,8.20
2019-02-15T07:19:37.434Z,8.20
2019-02-15T07:22:05.952Z,7.70
2019-02-15T07:24:34.454Z,8.10
2019-02-15T07:27:02.924Z,8.43
2019-02-15T07:29:31.449Z,7.67
2019-02-15T07:31:59.922Z,7.80
2019-02-15T07:34:28.402Z,7.30
2019-02-15T07:36:56.869Z,8.03
2019-02-15T07:39:25.396Z,7.37
2019-02-15T07:41:53.842Z,7.20
2019-02-15T07:44:22.323Z,7.03
2019-02-15T07:46:50.805Z,7.20
2019-02-15T07:49:26.704Z,7.43
2019-02-15T07:51:49.458Z,6.93
2019-02-15T07:54:17.969Z,6.20
2019-02-15T07:56:46.421Z,9.10
2019-02-15T07:59:14.881Z,8.17
2019-02-15T08:01:43.377Z,7.80
2019-02-15T08:04:11.850Z,7.90
2019-02-15T08:06:40.372Z,7.87
2019-02-15T08:09:10.726Z,7.33
2019-02-15T08:11:39.457Z,7.40
2019-02-15T08:14:14.610Z,10.00
2019-02-15T08:16:38.774Z,6.93
2019-02-15T08:19:07.399Z,6.90
2019-02-15T08:21:35.947Z,7.07
2019-02-15T08:24:04.491Z,6.80
2019-02-15T08:26:32.973Z,7.13
2019-02-15T08:29:01.470Z,6.30
2019-02-15T08:31:29.953Z,6.27
2019-02-15T08:33:58.465Z,7.67
2019-02-15T08:36:26.951Z,6.73
2019-02-15T08:38:55.419Z,6.33
2019-02-15T08:41:23.910Z,7.00
2019-02-15T08:43:52.369Z,7.47
2019-02-15T08:46:20.878Z,6.90
2019-02-15T08:48:49.337Z,6.73
2019-02-15T08:51:17.844Z,6.00
2019-02-15T08:53:46.308Z,6.90
2019-02-15T08:56:14.785Z,6.03
2019-02-15T08:58:43.270Z,6.90
2019-02-15T09:01:11.815Z,6.60
2019-02-15T09:03:40.286Z,6.57
2019-02-15T09:06:08.772Z,7.27
2019-02-15T09:08:37.234Z,6.90
2019-02-15T09:11:05.712Z,7.43
2019-02-15T09:13:34.206Z,7.20
2019-02-15T09:16:09.994Z,7.17
2019-02-15T09:18:32.870Z,7.53
2019-02-15T09:21:01.342Z,6.90
2019-02-15T09:23:29.836Z,7.43
2019-02-15T09:25:58.315Z,8.03
2019-02-15T09:28:29.145Z,8.10
2019-02-15T09:30:57.798Z,8.67
2019-02-15T09:33:26.280Z,8.17
2019-02-15T09:35:54.754Z,8.70
2019-02-15T09:38:23.311Z,8.43
2019-02-15T09:40:51.770Z,8.77
2019-02-15T09:43:20.275Z,8.77
2019-02-15T09:45:48.755Z,10.07
2019-02-15T09:48:17.224Z,9.27
2019-02-15T09:50:45.690Z,7.77
2019-02-15T09:53:14.165Z,8.30
2019-02-15T09:55:42.677Z,8.00
2019-02-15T09:58:11.167Z,8.13
2019-02-15T10:00:39.626Z,7.87
2019-02-15T10:03:08.107Z,7.83
2019-02-15T10:05:37.157Z,6.90
2019-02-15T10:08:06.215Z,6.72
2019-02-15T10:10:35.259Z,5.87
2019-02-15T10:13:04.320Z,6.20
2019-02-15T10:15:33.355Z,6.45
2019-02-15T10:18:02.440Z,5.72
2019-02-15T10:20:30.893Z,6.07
2019-02-15T10:22:59.383Z,6.67
2019-02-15T10:25:28.467Z,6.15
2019-02-15T10:27:57.534Z,5.60
2019-02-15T10:30:25.995Z,6.20
2019-02-15T10:32:54.467Z,6.00
2019-02-15T10:35:23.526Z,5.50
2019-02-15T10:37:52.606Z,5.90
2019-02-15T10:40:21.713Z,6.62
2019-02-15T10:42:50.772Z,5.87
2019-02-15T10:45:19.820Z,6.40
2019-02-15T10:47:48.886Z,5.97
2019-02-15T10:50:17.917Z,6.00
2019-02-15T10:52:46.998Z,5.67
2019-02-15T10:55:16.106Z,5.80
2019-02-15T10:57:45.237Z,5.92
2019-02-15T11:00:18.338Z,5.72
2019-02-15T11:02:47.653Z,5.20
2019-02-15T11:05:17.642Z,5.62
2019-02-15T11:07:46.664Z,4.65
2019-02-15T11:10:15.779Z,5.00
2019-02-15T11:12:44.812Z,5.15
2019-02-15T11:15:16.594Z,4.78
2019-02-15T11:17:45.851Z,4.90
2019-02-15T11:20:17.944Z,4.87
2019-02-15T11:22:47.004Z,5.90
2019-02-15T11:25:16.096Z,5.15
2019-02-15T11:27:45.132Z,5.05
2019-02-15T11:30:15.594Z,4.62
2019-02-15T11:32:44.626Z,5.05
2019-02-15T11:35:14.370Z,4.72
2019-02-15T11:37:43.392Z,5.17
2019-02-15T11:40:15.863Z,4.62
2019-02-15T11:42:49.355Z,4.75
2019-02-15T11:45:18.429Z,5.12
2019-02-15T11:47:47.538Z,5.08
2019-02-15T11:50:16.657Z,5.33
2019-02-15T11:52:45.716Z,5.45
2019-02-15T11:55:14.771Z,6.03
2019-02-15T11:57:43.821Z,5.55
2019-02-15T12:00:20.342Z,5.67
2019-02-15T12:02:49.218Z,4.78
2019-02-15T12:05:18.269Z,4.45
2019-02-15T12:07:47.309Z,5.65
2019-02-15T12:10:16.401Z,6.08
2019-02-15T12:12:45.459Z,6.70
2019-02-15T12:15:14.534Z,5.85
2019-02-15T12:17:43.649Z,5.78
2019-02-15T12:20:14.385Z,6.53
2019-02-15T12:22:43.487Z,5.58
2019-02-15T12:25:12.839Z,4.85
2019-02-15T12:27:41.949Z,4.80
2019-02-15T12:30:12.937Z,4.80
2019-02-15T12:32:42.029Z,4.53
2019-02-15T12:35:11.650Z,4.90
2019-02-15T12:37:40.705Z,4.62
2019-02-15T12:40:11.045Z,4.35
2019-02-15T12:42:40.091Z,4.47
2019-02-15T12:45:13.667Z,4.95
2019-02-15T12:47:42.695Z,5.22
2019-02-15T12:50:14.688Z,4.58
2019-02-15T12:52:43.794Z,4.87
2019-02-15T12:55:12.994Z,4.60
2019-02-15T12:57:42.037Z,4.60
2019-02-15T13:00:14.256Z,3.80
2019-02-15T13:02:43.516Z,4.55
2019-02-15T13:05:13.780Z,4.50
2019-02-15T13:07:43.089Z,3.52
2019-02-15T13:10:20.014Z,4.25
2019-02-15T13:12:49.088Z,6.58
2019-02-15T13:15:18.202Z,4.45
2019-02-15T13:17:47.307Z,4.72
2019-02-15T13:20:16.386Z,3.50
2019-02-15T13:22:45.541Z,3.83
2019-02-15T13:25:14.700Z,3.42
2019-02-15T13:27:43.843Z,4.60
2019-02-15T13:30:14.613Z,3.50
2019-02-15T13:32:43.656Z,4.22
2019-02-15T13:35:18.534Z,3.00
2019-02-15T13:37:47.594Z,2.80
2019-02-15T13:40:16.616Z,2.60
2019-02-15T13:42:45.654Z,2.30
2019-02-15T13:45:14.822Z,2.92
2019-02-15T13:47:43.885Z,2.37
2019-02-15T13:50:14.360Z,2.10
2019-02-15T13:52:43.461Z,2.50
2019-02-15T13:55:12.500Z,2.22
2019-02-15T13:57:41.549Z,2.62
2019-02-15T14:00:12.618Z,4.22
2019-02-15T14:02:41.749Z,2.92
2019-02-15T14:05:12.024Z,2.90
2019-02-15T14:07:41.134Z,2.50
2019-02-15T14:10:11.975Z,2.20
2019-02-15T14:12:41.097Z,2.85
2019-02-15T14:15:11.281Z,2.50
2019-02-15T14:17:45.329Z,2.42
2019-02-15T14:20:13.388Z,3.05
2019-02-15T14:22:42.438Z,2.20
2019-02-15T14:25:12.401Z,3.08
2019-02-15T14:27:41.516Z,2.05
2019-02-15T14:30:13.687Z,2.40
2019-02-15T14:32:42.834Z,2.72
2019-02-15T14:35:14.790Z,2.98
2019-02-15T14:37:43.835Z,2.12
2019-02-15T14:40:13.909Z,2.72
2019-02-15T14:42:42.956Z,2.30
2019-02-15T14:45:12.920Z,2.30
2019-02-15T14:47:42.046Z,2.30
2019-02-15T14:50:12.146Z,2.17
2019-02-15T14:52:41.238Z,1.80
2019-02-15T14:55:11.112Z,1.42
2019-02-15T14:57:40.253Z,1.85
2019-02-15T15:00:14.450Z,4.92
2019-02-15T15:02:43.525Z,5.12
2019-02-15T15:05:13.721Z,2.50
2019-02-15T15:07:42.868Z,2.30
2019-02-15T15:10:12.474Z,3.00
2019-02-15T15:12:41.654Z,2.98
2019-02-15T15:15:12.922Z,3.27
2019-02-15T15:17:42.053Z,2.10
2019-02-15T15:20:12.339Z,2.00
2019-02-15T15:22:41.534Z,2.95
2019-02-15T15:25:12.398Z,2.95
2019-02-15T15:27:41.610Z,2.50
2019-02-15T15:30:12.683Z,2.47
2019-02-15T15:32:41.748Z,2.77
2019-02-15T15:35:11.817Z,3.12
2019-02-15T15:37:40.870Z,2.92
2019-02-15T15:40:14.599Z,3.20
2019-02-15T15:42:43.718Z,6.62
2019-02-15T15:45:13.132Z,4.37
2019-02-15T15:47:42.220Z,6.30
2019-02-15T15:50:12.430Z,7.47
2019-02-15T15:52:41.554Z,6.78
2019-02-15T15:55:11.875Z,5.97
2019-02-15T15:57:40.907Z,3.83
2019-02-15T16:00:14.641Z,3.17
2019-02-15T16:02:43.675Z,2.85
2019-02-15T16:05:12.856Z,3.35
2019-02-15T16:07:43.549Z,3.55
2019-02-15T16:10:16.113Z,5.53
2019-02-15T16:12:45.186Z,3.80
2019-02-15T16:15:14.749Z,4.00
2019-02-15T16:17:43.791Z,4.72
2019-02-15T16:20:13.715Z,5.50
2019-02-15T16:22:42.763Z,4.87
2019-02-15T16:25:11.993Z,5.17
2019-02-15T16:27:41.083Z,4.50
2019-02-15T16:30:12.775Z,5.42
2019-02-15T16:32:41.835Z,5.97
2019-02-15T16:35:11.113Z,7.05
2019-02-15T16:37:40.209Z,6.00
2019-02-15T16:40:14.040Z,5.72
2019-02-15T16:42:43.225Z,7.22
2019-02-15T16:45:14.352Z,6.45
2019-02-15T16:47:43.577Z,7.25
2019-02-15T16:50:13.499Z,8.60
2019-02-15T16:52:42.576Z,7.15
2019-02-15T16:55:13.177Z,8.18
2019-02-15T16:57:42.843Z,10.10
2019-02-15T17:00:13.675Z,8.88
2019-02-15T17:02:43.168Z,6.65
2019-02-15T17:05:12.533Z,6.30
2019-02-15T17:07:41.785Z,6.35
2019-02-15T17:10:11.466Z,6.15
2019-02-15T17:12:40.607Z,6.70
2019-02-15T17:15:11.679Z,6.72
2019-02-15T17:17:40.817Z,6.67
2019-02-15T17:20:10.297Z,7.00
2019-02-15T17:22:39.380Z,7.05
2019-02-15T17:25:11.989Z,7.37
2019-02-15T17:27:41.046Z,9.60
2019-02-15T17:30:11.226Z,9.70
2019-02-15T17:32:40.282Z,7.97
2019-02-15T17:35:10.579Z,8.65
2019-02-15T17:37:39.935Z,8.08
2019-02-15T17:40:13.722Z,8.45
2019-02-15T17:42:44.578Z,7.33
2019-02-15T17:45:13.691Z,8.40
2019-02-15T17:47:43.179Z,7.40
2019-02-15T17:50:12.797Z,8.35
2019-02-15T17:52:41.917Z,10.43
2019-02-15T17:55:11.246Z,10.08
2019-02-15T17:57:40.380Z,9.05
2019-02-15T18:00:12.073Z,9.70
2019-02-15T18:02:41.115Z,9.10
2019-02-15T18:05:12.468Z,10.15
2019-02-15T18:07:41.521Z,11.30
2019-02-15T18:10:10.837Z,10.03
2019-02-15T18:12:39.950Z,11.28
2019-02-15T18:15:09.013Z,10.55
2019-02-15T18:17:38.092Z,11.12
2019-02-15T18:20:08.713Z,9.55
2019-02-15T18:22:37.768Z,8.98
2019-02-15T18:25:08.255Z,9.55
2019-02-15T18:27:37.389Z,9.90
2019-02-15T18:30:14.651Z,9.08
2019-02-15T18:32:43.735Z,10.43
2019-02-15T18:35:12.337Z,9.50
2019-02-15T18:37:41.382Z,9.70
2019-02-15T18:40:10.844Z,16.85
2019-02-15T18:42:39.917Z,11.93
2019-02-15T18:45:12.276Z,10.68
2019-02-15T18:47:41.335Z,10.38
2019-02-15T18:50:10.558Z,10.80
2019-02-15T18:52:39.727Z,10.05
2019-02-15T18:55:12.099Z,10.07
2019-02-15T18:57:41.169Z,11.15
2019-02-15T19:00:15.435Z,10.37
2019-02-15T19:02:45.723Z,11.15
2019-02-15T19:05:14.382Z,11.57
2019-02-15T19:07:42.854Z,11.63
2019-02-15T19:10:14.336Z,10.90
2019-02-15T19:12:42.887Z,11.10
2019-02-15T19:15:14.283Z,11.12
2019-02-15T19:17:42.864Z,10.60
2019-02-15T19:20:13.847Z,10.50
2019-02-15T19:22:42.380Z,9.97
2019-02-15T19:25:13.108Z,10.57
2019-02-15T19:27:41.570Z,9.80
2019-02-15T19:30:22.362Z,10.53
2019-02-15T19:32:50.957Z,11.00
2019-02-15T19:35:19.653Z,9.93
2019-02-15T19:37:48.186Z,10.17
2019-02-15T19:40:18.982Z,11.57
2019-02-15T19:42:49.338Z,12.00
2019-02-15T19:45:17.960Z,11.77
2019-02-15T19:47:46.434Z,11.73
2019-02-15T19:50:17.134Z,11.57
2019-02-15T19:52:47.235Z,12.43
2019-02-15T19:55:15.732Z,13.13
2019-02-15T19:57:44.277Z,13.93
2019-02-15T20:00:20.267Z,13.77
2019-02-15T20:02:48.825Z,14.03
2019-02-15T20:05:17.303Z,12.90
2019-02-15T20:07:45.966Z,14.27
2019-02-15T20:10:17.045Z,15.57
2019-02-15T20:12:45.544Z,14.70
2019-02-15T20:15:14.851Z,15.87
2019-02-15T20:17:43.432Z,16.47
2019-02-15T20:20:17.038Z,15.40
2019-02-15T20:22:45.503Z,16.33
2019-02-15T20:25:14.274Z,15.17
2019-02-15T20:27:42.824Z,14.97
2019-02-15T20:30:14.533Z,15.00
2019-02-15T20:32:43.073Z,15.83
2019-02-15T20:35:13.457Z,17.70
2019-02-15T20:37:41.821Z,15.77
2019-02-15T20:40:11.741Z,16.67
2019-02-15T20:42:40.354Z,18.43
2019-02-15T20:45:20.138Z,17.23
2019-02-15T20:47:48.619Z,16.67
2019-02-15T20:50:17.739Z,16.90
2019-02-15T20:52:46.209Z,16.13
2019-02-15T20:55:19.314Z,15.63
2019-02-15T20:57:48.099Z,15.73
2019-02-15T21:00:22.660Z,14.27
2019-02-15T21:02:51.131Z,16.63
2019-02-15T21:05:19.682Z,16.07
2019-02-15T21:07:48.199Z,15.70
2019-02-15T21:10:16.712Z,15.23
2019-02-15T21:12:45.180Z,15.90
2019-02-15T21:15:14.697Z,15.73
2019-02-15T21:17:43.257Z,15.60
2019-02-15T21:20:14.036Z,15.63
2019-02-15T21:22:42.580Z,15.57
2019-02-15T21:25:12.900Z,15.90
2019-02-15T21:27:41.366Z,16.20
2019-02-15T21:30:12.180Z,15.30
2019-02-15T21:32:40.674Z,16.13
2019-02-15T21:35:09.245Z,15.87
2019-02-15T21:37:37.722Z,14.63
2019-02-15T21:40:19.582Z,15.70
2019-02-15T21:42:48.303Z,15.93
2019-02-15T21:45:16.930Z,16.03
2019-02-15T21:47:45.462Z,14.97
2019-02-15T21:50:17.522Z,16.33
2019-02-15T21:52:44.794Z,15.60
2019-02-15T21:55:15.684Z,15.20
2019-02-15T21:57:44.153Z,15.03
2019-02-15T22:00:20.551Z,14.97
2019-02-15T22:02:49.025Z,14.60
2019-02-15T22:05:17.795Z,14.53
2019-02-15T22:07:46.262Z,14.53
2019-02-15T22:10:14.803Z,14.30
2019-02-15T22:12:43.280Z,15.37
2019-02-15T22:15:13.409Z,15.67
2019-02-15T22:17:41.912Z,14.37
2019-02-15T22:20:12.503Z,14.33
2019-02-15T22:22:40.987Z,14.20
2019-02-15T22:25:09.455Z,13.23
2019-02-15T22:27:37.942Z,15.30
2019-02-15T22:30:11.796Z,14.27
2019-02-15T22:32:42.481Z,15.13
2019-02-15T22:35:10.695Z,15.00
2019-02-15T22:37:39.201Z,19.23
2019-02-15T22:40:29.145Z,16.37
2019-02-15T22:43:00.247Z,16.67
2019-02-15T22:45:28.721Z,17.33
2019-02-15T22:47:57.203Z,15.70
2019-02-15T22:50:25.681Z,15.10
2019-02-15T22:52:54.165Z,15.07
2019-02-15T22:55:22.643Z,14.63
2019-02-15T22:57:51.123Z,15.13
2019-02-15T23:00:51.484Z,15.17
2019-02-15T23:03:25.223Z,15.10
2019-02-15T23:05:54.423Z,14.37
2019-02-15T23:08:22.914Z,13.23
2019-02-15T23:10:51.542Z,14.27
2019-02-15T23:13:20.070Z,13.03
2019-02-15T23:15:48.536Z,13.37
2019-02-15T23:18:18.903Z,14.83
2019-02-15T23:20:47.218Z,13.20
2019-02-15T23:23:15.707Z,12.70
2019-02-15T23:25:44.184Z,12.60
2019-02-15T23:28:12.722Z,12.23
2019-02-15T23:30:41.180Z,13.03
2019-02-15T23:33:09.665Z,11.97
2019-02-15T23:35:38.130Z,11.77
2019-02-15T23:38:06.624Z,11.13
2019-02-15T23:40:35.088Z,10.20
2019-02-15T23:43:03.709Z,10.20
2019-02-15T23:45:32.326Z,10.77
2019-02-15T23:48:00.792Z,10.37
2019-02-15T23:50:29.252Z,9.70
2019-02-15T23:52:57.724Z,10.60
2019-02-15T23:55:26.182Z,9.90
2019-02-15T23:57:54.668Z,9.87
